createdAt,value
2023-01-30T00:00:13.036Z,99270.72
2023-01-30T00:02:41.899Z,99298.38
2023-01-30T00:05:10.245Z,99298.28
2023-01-30T00:07:38.501Z,99209.94
2023-01-30T00:10:07.095Z,99291.38
2023-01-30T00:12:35.692Z,99288.00
2023-01-30T00:15:04.801Z,99273.44
2023-01-30T00:17:32.969Z,99280.78
2023-01-30T00:20:01.263Z,99277.34
2023-01-30T00:22:30.347Z,99226.63
2023-01-30T00:24:58.416Z,99242.25
2023-01-30T00:27:26.521Z,99256.75
2023-01-30T00:30:02.837Z,99253.97
2023-01-30T00:32:32.565Z,99251.25
2023-01-30T00:35:00.771Z,99240.81
2023-01-30T00:37:29.553Z,99236.44
2023-01-30T00:39:58.916Z,99176.69
2023-01-30T00:42:47.548Z,99181.56
2023-01-30T00:45:34.297Z,99220.16
2023-01-30T00:48:03.929Z,99218.59
2023-01-30T00:50:42.648Z,99206.78
2023-01-30T00:53:16.440Z,99211.84
2023-01-30T00:55:45.738Z,99165.22
2023-01-30T00:58:14.144Z,99142.97
2023-01-30T01:00:42.548Z,99192.47
2023-01-30T01:03:10.761Z,99187.97
2023-01-30T01:05:38.698Z,99177.13
2023-01-30T01:08:07.765Z,99182.00
2023-01-30T01:10:36.033Z,99180.13
2023-01-30T01:13:06.653Z,99174.91
2023-01-30T01:15:35.495Z,99183.69
2023-01-30T01:18:03.780Z,99171.56
2023-01-30T01:20:32.567Z,99122.72
2023-01-30T01:23:00.996Z,99100.88
2023-01-30T01:25:29.213Z,99174.75
2023-01-30T01:27:57.213Z,99162.59
2023-01-30T01:30:25.399Z,99147.13
2023-01-30T01:32:53.388Z,99151.06
2023-01-30T01:35:21.426Z,99149.13
2023-01-30T01:37:54.746Z,99130.16
2023-01-30T01:40:42.340Z,99146.63
2023-01-30T01:43:22.724Z,99095.16
2023-01-30T01:46:18.507Z,99073.69
2023-01-30T01:48:53.800Z,99115.78
2023-01-30T01:51:42.705Z,99122.16
2023-01-30T01:54:18.626Z,99050.31
2023-01-30T01:56:48.696Z,99063.63
2023-01-30T01:59:53.513Z,99086.44
2023-01-30T02:02:22.038Z,99032.41
2023-01-30T02:05:03.740Z,99037.13
2023-01-30T02:07:55.027Z,99103.88
2023-01-30T02:10:52.023Z,99080.53
2023-01-30T02:13:20.200Z,99079.59
2023-01-30T02:15:50.395Z,99072.59
2023-01-30T02:18:19.551Z,99048.69
2023-01-30T02:21:48.710Z,99062.25
2023-01-30T02:25:08.293Z,99059.72
2023-01-30T02:27:59.973Z,99018.00
2023-01-30T02:30:34.444Z,99053.56
2023-01-30T02:33:19.624Z,99047.44
2023-01-30T02:35:57.379Z,99041.44
2023-01-30T02:38:39.917Z,99029.28
2023-01-30T02:41:20.142Z,99028.28
2023-01-30T02:44:11.772Z,99026.59
2023-01-30T02:47:04.136Z,99022.22
2023-01-30T02:49:56.285Z,99004.97
2023-01-30T02:52:27.777Z,99010.66
2023-01-30T02:54:55.818Z,98956.75
2023-01-30T02:57:26.524Z,98956.56
2023-01-30T03:00:04.416Z,98983.50
2023-01-30T03:03:15.776Z,98949.00
2023-01-30T03:06:11.582Z,98981.25
2023-01-30T03:08:51.392Z,98973.31
2023-01-30T03:11:25.081Z,98967.25
2023-01-30T03:14:02.720Z,98962.03
2023-01-30T03:16:41.076Z,98950.09
2023-01-30T03:19:13.943Z,98950.81
2023-01-30T03:21:46.169Z,98945.78
2023-01-30T03:24:15.028Z,98927.97
2023-01-30T03:26:59.954Z,98901.25
2023-01-30T03:29:28.223Z,98936.47
2023-01-30T03:31:56.494Z,98894.06
2023-01-30T03:34:24.766Z,98921.16
2023-01-30T03:36:52.794Z,98879.78
2023-01-30T03:39:21.571Z,98887.34
2023-01-30T03:41:50.363Z,98886.78
2023-01-30T03:44:19.119Z,98925.84
2023-01-30T03:46:47.160Z,98901.91
2023-01-30T03:49:15.388Z,98926.03
2023-01-30T03:51:43.299Z,98925.34
2023-01-30T03:54:11.215Z,98862.16
2023-01-30T03:56:39.743Z,98873.81
2023-01-30T03:59:08.715Z,98816.41
2023-01-30T04:01:42.578Z,98886.34
2023-01-30T04:04:11.457Z,98883.53
2023-01-30T04:06:39.398Z,98897.16
2023-01-30T04:09:07.876Z,98825.19
2023-01-30T04:11:43.744Z,98884.75
2023-01-30T04:14:12.590Z,98814.03
2023-01-30T04:17:06.836Z,98824.41
2023-01-30T04:19:58.208Z,98852.66
2023-01-30T04:22:26.991Z,98860.31
2023-01-30T04:24:54.934Z,98803.41
2023-01-30T04:27:22.993Z,98862.00
2023-01-30T04:30:11.788Z,98796.66
2023-01-30T04:32:40.711Z,98698.19
2023-01-30T04:35:10.867Z,98845.03
2023-01-30T04:37:40.025Z,98637.28
2023-01-30T04:40:10.660Z,98816.84
2023-01-30T04:42:39.047Z,98828.03
2023-01-30T04:45:30.479Z,98801.47
2023-01-30T04:47:58.685Z,98816.28
2023-01-30T04:50:26.968Z,98806.69
2023-01-30T04:52:55.023Z,98797.25
2023-01-30T04:55:22.925Z,98789.41
2023-01-30T04:57:50.857Z,98740.53
2023-01-30T05:00:19.496Z,98787.47
2023-01-30T05:02:55.864Z,98787.38
2023-01-30T05:05:25.453Z,98795.97
2023-01-30T05:07:54.348Z,98780.47
2023-01-30T05:10:22.507Z,98735.16
2023-01-30T05:12:51.035Z,98707.94
2023-01-30T05:15:19.423Z,98777.13
2023-01-30T05:17:47.662Z,98788.50
2023-01-30T05:20:16.274Z,98781.59
2023-01-30T05:22:44.271Z,98786.81
2023-01-30T05:25:12.360Z,98776.19
2023-01-30T05:27:40.687Z,98724.53
2023-01-30T05:30:09.868Z,98779.00
2023-01-30T05:32:37.792Z,98747.56
2023-01-30T05:35:06.855Z,98697.78
2023-01-30T05:37:34.847Z,98739.53
2023-01-30T05:40:02.975Z,98732.34
2023-01-30T05:42:31.833Z,98673.44
2023-01-30T05:44:59.778Z,98693.66
2023-01-30T05:47:27.849Z,98724.91
2023-01-30T05:49:56.110Z,98737.56
2023-01-30T05:52:23.986Z,98716.97
2023-01-30T05:54:51.983Z,98653.88
2023-01-30T05:57:20.281Z,98729.38
2023-01-30T05:59:48.518Z,98725.34
2023-01-30T06:02:16.501Z,98709.69
2023-01-30T06:04:44.713Z,98714.00
2023-01-30T06:07:14.237Z,98649.22
2023-01-30T06:09:42.375Z,98701.75
2023-01-30T06:12:10.769Z,98711.75
2023-01-30T06:14:38.964Z,98672.69
2023-01-30T06:17:07.538Z,98631.13
2023-01-30T06:19:35.851Z,98630.72
2023-01-30T06:22:03.812Z,98511.34
2023-01-30T06:24:31.840Z,98686.09
2023-01-30T06:27:00.595Z,98680.22
2023-01-30T06:29:28.763Z,98662.69
2023-01-30T06:31:56.757Z,98599.81
2023-01-30T06:34:25.155Z,98599.31
2023-01-30T06:36:53.174Z,98619.22
2023-01-30T06:39:21.180Z,98635.34
2023-01-30T06:41:49.591Z,98629.81
2023-01-30T06:44:18.377Z,98599.16
2023-01-30T06:46:46.359Z,98607.34
2023-01-30T06:49:14.559Z,98533.78
2023-01-30T06:51:42.532Z,98605.06
2023-01-30T06:54:10.562Z,98514.56
2023-01-30T06:56:38.712Z,98583.97
2023-01-30T06:59:06.701Z,98570.16
2023-01-30T07:01:34.791Z,98560.78
2023-01-30T07:04:03.957Z,98533.84
2023-01-30T07:06:32.332Z,98534.66
2023-01-30T07:09:00.268Z,98546.13
2023-01-30T07:11:29.202Z,98544.25
2023-01-30T07:13:58.054Z,98485.03
2023-01-30T07:16:29.888Z,98489.19
2023-01-30T07:18:59.008Z,98518.19
2023-01-30T07:21:27.729Z,98500.31
2023-01-30T07:23:55.865Z,98530.88
2023-01-30T07:26:25.230Z,98507.34
2023-01-30T07:28:53.390Z,98485.69
2023-01-30T07:31:21.835Z,98510.16
2023-01-30T07:33:50.232Z,98450.72
2023-01-30T07:36:18.189Z,98487.47
2023-01-30T07:38:49.816Z,98475.66
2023-01-30T07:41:18.053Z,98484.25
2023-01-30T07:43:46.282Z,98488.34
2023-01-30T07:46:14.393Z,98490.84
2023-01-30T07:48:45.790Z,98478.63
2023-01-30T07:51:14.034Z,98490.97
2023-01-30T07:53:42.098Z,98450.28
2023-01-30T07:56:14.471Z,98409.59
2023-01-30T07:58:42.419Z,98482.28
2023-01-30T08:01:10.539Z,98490.09
2023-01-30T08:03:38.681Z,98430.59
2023-01-30T08:06:07.783Z,98421.25
2023-01-30T08:08:36.098Z,98475.03
2023-01-30T08:11:04.661Z,98406.53
2023-01-30T08:13:35.774Z,98476.81
2023-01-30T08:16:06.680Z,98413.56
2023-01-30T08:18:35.925Z,98416.53
2023-01-30T08:21:07.265Z,98417.34
2023-01-30T08:23:38.629Z,98462.31
2023-01-30T08:26:06.718Z,98453.78
2023-01-30T08:28:34.770Z,98440.72
2023-01-30T08:31:02.937Z,98271.53
2023-01-30T08:33:30.985Z,98410.19
2023-01-30T08:36:00.626Z,98415.31
2023-01-30T08:38:28.831Z,98346.88
2023-01-30T08:40:58.118Z,98380.75
2023-01-30T08:43:26.972Z,98404.25
2023-01-30T08:45:57.146Z,98382.81
2023-01-30T08:48:25.502Z,98349.09
2023-01-30T08:50:55.502Z,98390.88
2023-01-30T08:53:24.015Z,98389.41
2023-01-30T08:55:53.725Z,98348.22
2023-01-30T08:58:22.724Z,98375.22
2023-01-30T09:00:51.008Z,98369.22
2023-01-30T09:03:19.936Z,98338.81
2023-01-30T09:05:48.531Z,98333.59
2023-01-30T09:08:16.862Z,98320.31
2023-01-30T09:10:44.995Z,98276.34
2023-01-30T09:13:13.254Z,98338.31
2023-01-30T09:15:45.648Z,98317.53
2023-01-30T09:18:13.791Z,98270.44
2023-01-30T09:20:41.767Z,98301.22
2023-01-30T09:23:09.861Z,98309.69
2023-01-30T09:25:38.252Z,98297.69
2023-01-30T09:28:06.315Z,98309.06
2023-01-30T09:30:34.923Z,98255.78
2023-01-30T09:33:04.107Z,98287.94
2023-01-30T09:35:32.467Z,98284.69
2023-01-30T09:38:01.639Z,98262.94
2023-01-30T09:40:32.916Z,98255.03
2023-01-30T09:43:48.761Z,98175.88
2023-01-30T09:46:29.460Z,98246.72
2023-01-30T09:49:26.691Z,98171.13
2023-01-30T09:52:09.879Z,98229.31
2023-01-30T09:54:43.307Z,98167.25
2023-01-30T09:57:22.686Z,98209.00
2023-01-30T09:59:58.453Z,98209.00
2023-01-30T10:02:41.814Z,98212.84
2023-01-30T10:05:10.542Z,98214.31
2023-01-30T10:08:14.960Z,98207.84
2023-01-30T10:11:10.454Z,98198.81
2023-01-30T10:14:08.287Z,98185.63
2023-01-30T10:17:45.536Z,98183.63
2023-01-30T10:20:32.309Z,98127.72
2023-01-30T10:23:38.223Z,98159.50
2023-01-30T10:26:23.219Z,98169.88
2023-01-30T10:29:07.423Z,98151.16
2023-01-30T10:31:56.862Z,98092.47
2023-01-30T10:34:37.172Z,98147.50
2023-01-30T10:37:33.175Z,98141.91
2023-01-30T10:40:43.047Z,98074.47
2023-01-30T10:43:37.286Z,98154.88
2023-01-30T10:46:56.974Z,98150.34
2023-01-30T10:49:44.595Z,98139.28
2023-01-30T10:52:38.570Z,98136.56
2023-01-30T10:55:37.589Z,98140.69
2023-01-30T10:58:26.613Z,98135.09
2023-01-30T11:01:53.774Z,98134.22
2023-01-30T11:04:42.580Z,98088.72
2023-01-30T11:07:12.034Z,98137.28
2023-01-30T11:09:46.685Z,98129.91
2023-01-30T11:12:16.078Z,98130.16
2023-01-30T11:15:16.725Z,98136.88
2023-01-30T11:17:46.073Z,98074.41
2023-01-30T11:20:24.665Z,98095.34
2023-01-30T11:23:07.650Z,98126.34
2023-01-30T11:26:10.472Z,98102.56
2023-01-30T11:28:48.660Z,98122.75
2023-01-30T11:31:40.508Z,98110.69
2023-01-30T11:34:16.999Z,98111.13
2023-01-30T11:36:48.675Z,98102.16
2023-01-30T11:39:18.793Z,98097.53
2023-01-30T11:42:03.807Z,97991.59
2023-01-30T11:44:40.610Z,98078.25
2023-01-30T11:47:27.761Z,98063.81
2023-01-30T11:50:07.538Z,98092.38
2023-01-30T11:52:50.557Z,97939.22
2023-01-30T11:55:21.000Z,98072.34
2023-01-30T11:57:56.313Z,98088.50
2023-01-30T12:00:38.954Z,98088.00
2023-01-30T12:03:18.271Z,98081.38
2023-01-30T12:05:48.564Z,98077.94
2023-01-30T12:08:31.184Z,98019.28
2023-01-30T12:11:07.830Z,98054.56
2023-01-30T12:13:43.673Z,98073.22
2023-01-30T12:16:25.667Z,98066.16
2023-01-30T12:19:19.156Z,98070.31
2023-01-30T12:21:59.316Z,98058.59
2023-01-30T12:25:27.474Z,98006.53
2023-01-30T12:28:20.307Z,98073.66
2023-01-30T12:31:24.853Z,98011.25
2023-01-30T12:33:55.749Z,98074.38
2023-01-30T12:36:38.825Z,97998.66
2023-01-30T12:39:47.961Z,98059.16
2023-01-30T12:42:48.525Z,98056.06
2023-01-30T12:45:41.326Z,98041.78
2023-01-30T12:48:13.110Z,98053.94
2023-01-30T12:51:04.008Z,98062.59
2023-01-30T12:53:50.681Z,98063.75
2023-01-30T12:56:41.398Z,98065.66
2023-01-30T12:59:21.646Z,98067.91
2023-01-30T13:02:29.727Z,98059.03
2023-01-30T13:05:33.802Z,98073.44
2023-01-30T13:08:34.122Z,98055.25
2023-01-30T13:11:41.561Z,98072.34
2023-01-30T13:14:21.762Z,98052.19
2023-01-30T13:17:20.698Z,98055.53
2023-01-30T13:20:18.069Z,98051.25
2023-01-30T13:23:13.231Z,98035.19
2023-01-30T13:26:06.016Z,97991.16
2023-01-30T13:28:44.729Z,98053.03
2023-01-30T13:31:18.941Z,98042.94
2023-01-30T13:33:51.306Z,98043.50
2023-01-30T13:36:44.995Z,97996.28
2023-01-30T13:39:54.668Z,98045.19
2023-01-30T13:42:26.540Z,98046.97
2023-01-30T13:44:56.360Z,97976.44
2023-01-30T13:47:55.072Z,98034.63
2023-01-30T13:51:06.151Z,98041.41
2023-01-30T13:54:13.069Z,98051.03
2023-01-30T13:57:38.215Z,98046.63
2023-01-30T14:00:35.313Z,98057.78
2023-01-30T14:03:06.924Z,98053.41
2023-01-30T14:06:01.269Z,98044.63
2023-01-30T14:08:48.656Z,98042.09
2023-01-30T14:11:40.663Z,98041.19
2023-01-30T14:14:40.835Z,98037.13
2023-01-30T14:17:16.697Z,98024.78
2023-01-30T14:19:57.393Z,98022.84
2023-01-30T14:22:25.887Z,98044.41
2023-01-30T14:25:30.878Z,98033.72
2023-01-30T14:28:01.977Z,98057.84
2023-01-30T14:30:48.724Z,97958.44
2023-01-30T14:33:22.656Z,98034.56
2023-01-30T14:36:03.224Z,98050.03
2023-01-30T14:38:37.576Z,97990.78
2023-01-30T14:41:05.842Z,98050.84
2023-01-30T14:43:43.108Z,98000.41
2023-01-30T14:46:20.568Z,98051.31
2023-01-30T14:48:53.543Z,98059.28
2023-01-30T14:51:48.256Z,98051.56
2023-01-30T14:54:16.893Z,98043.72
2023-01-30T14:57:01.118Z,98042.88
2023-01-30T15:00:03.219Z,98002.19
2023-01-30T15:02:49.196Z,98046.09
2023-01-30T15:05:34.947Z,98026.72
2023-01-30T15:08:17.111Z,98056.19
2023-01-30T15:11:12.619Z,98055.28
2023-01-30T15:13:57.711Z,98023.63
2023-01-30T15:17:34.679Z,98031.59
2023-01-30T15:20:08.689Z,98065.25
2023-01-30T15:23:20.856Z,98050.41
2023-01-30T15:26:10.228Z,98054.78
2023-01-30T15:28:56.599Z,98001.88
2023-01-30T15:31:25.201Z,97984.88
2023-01-30T15:33:57.155Z,98007.22
2023-01-30T15:36:36.668Z,97996.03
2023-01-30T15:39:26.548Z,98045.50
2023-01-30T15:42:08.499Z,98050.53
2023-01-30T15:44:39.401Z,98061.91
2023-01-30T15:47:16.851Z,98003.63
2023-01-30T15:50:01.892Z,98064.19
2023-01-30T15:52:52.010Z,98027.03
2023-01-30T15:55:30.509Z,98075.25
2023-01-30T15:58:19.395Z,98053.16
2023-01-30T16:00:55.873Z,98063.47
2023-01-30T16:03:35.826Z,98085.00
2023-01-30T16:06:05.366Z,98084.81
2023-01-30T16:08:37.209Z,98032.06
2023-01-30T16:11:05.786Z,98072.53
2023-01-30T16:13:35.801Z,98071.72
2023-01-30T16:16:19.140Z,98091.72
2023-01-30T16:18:55.936Z,98036.38
2023-01-30T16:21:50.720Z,98031.75
2023-01-30T16:24:25.255Z,98051.97
2023-01-30T16:27:07.174Z,98061.38
2023-01-30T16:29:53.477Z,98039.84
2023-01-30T16:32:30.925Z,98098.16
2023-01-30T16:35:26.883Z,98096.38
2023-01-30T16:38:00.320Z,98099.81
2023-01-30T16:40:45.381Z,98054.72
2023-01-30T16:43:23.639Z,98040.56
2023-01-30T16:46:27.383Z,98104.59
2023-01-30T16:49:06.580Z,98103.16
2023-01-30T16:51:37.667Z,98044.25
2023-01-30T16:54:16.592Z,98048.19
2023-01-30T16:56:51.688Z,98095.56
2023-01-30T16:59:28.391Z,98096.97
2023-01-30T17:02:00.283Z,98085.19
2023-01-30T17:04:35.920Z,98051.75
2023-01-30T17:07:05.496Z,98108.88
2023-01-30T17:09:47.785Z,98023.69
2023-01-30T17:12:30.767Z,98119.69
2023-01-30T17:15:15.726Z,98126.63
2023-01-30T17:17:45.738Z,98114.34
2023-01-30T17:20:20.605Z,98112.22
2023-01-30T17:22:58.234Z,98113.03
2023-01-30T17:25:39.713Z,98120.66
2023-01-30T17:28:21.554Z,98132.94
2023-01-30T17:30:52.831Z,98121.50
2023-01-30T17:33:21.521Z,98079.94
2023-01-30T17:35:50.837Z,98122.47
2023-01-30T17:38:20.592Z,98085.78
2023-01-30T17:40:50.438Z,98116.38
2023-01-30T17:43:19.389Z,98124.13
2023-01-30T17:45:50.853Z,98114.34
2023-01-30T17:48:19.721Z,98119.72
2023-01-30T17:50:48.641Z,98076.31
2023-01-30T17:53:17.585Z,98124.59
2023-01-30T17:55:46.896Z,98060.69
2023-01-30T17:58:18.351Z,98126.84
2023-01-30T18:00:47.092Z,98112.56
2023-01-30T18:03:15.597Z,98099.38
2023-01-30T18:05:44.606Z,98027.63
2023-01-30T18:08:14.492Z,98085.19
2023-01-30T18:10:43.189Z,98135.66
2023-01-30T18:13:11.876Z,98124.81
2023-01-30T18:15:41.093Z,98128.41
2023-01-30T18:18:16.584Z,98124.56
2023-01-30T18:20:46.314Z,98150.31
2023-01-30T18:23:16.762Z,98131.25
2023-01-30T18:25:45.566Z,98121.84
2023-01-30T18:28:14.108Z,98076.28
2023-01-30T18:30:42.747Z,98136.84
2023-01-30T18:33:12.215Z,98141.59
2023-01-30T18:35:42.297Z,98148.16
2023-01-30T18:38:11.906Z,98075.09
2023-01-30T18:40:41.580Z,98088.66
2023-01-30T18:43:10.709Z,98138.75
2023-01-30T18:45:39.749Z,98084.16
2023-01-30T18:48:09.344Z,98129.34
2023-01-30T18:50:42.182Z,98145.75
2023-01-30T18:53:12.616Z,98137.06
2023-01-30T18:55:51.014Z,98143.00
2023-01-30T18:58:26.016Z,98142.19
2023-01-30T19:00:58.928Z,98137.06
2023-01-30T19:03:29.257Z,98112.78
2023-01-30T19:06:02.677Z,98107.09
2023-01-30T19:08:32.608Z,98157.19
2023-01-30T19:11:41.976Z,98146.72
2023-01-30T19:14:12.187Z,98158.25
2023-01-30T19:16:42.549Z,98152.91
2023-01-30T19:19:12.054Z,98146.94
2023-01-30T19:21:42.546Z,98153.16
2023-01-30T19:24:17.173Z,98118.03
2023-01-30T19:26:48.444Z,98106.88
2023-01-30T19:29:19.554Z,98157.19
2023-01-30T19:31:49.781Z,98162.53
2023-01-30T19:34:20.905Z,98168.75
2023-01-30T19:36:50.577Z,98172.28
2023-01-30T19:39:20.111Z,98173.38
2023-01-30T19:41:49.471Z,98166.13
2023-01-30T19:44:19.075Z,98162.78
2023-01-30T19:46:50.212Z,98166.47
2023-01-30T19:49:20.662Z,98172.28
2023-01-30T19:51:52.700Z,98169.91
2023-01-30T19:54:23.782Z,98154.31
2023-01-30T19:56:53.572Z,98178.63
2023-01-30T19:59:23.959Z,98167.31
2023-01-30T20:01:55.181Z,98166.25
2023-01-30T20:04:24.272Z,98176.84
2023-01-30T20:06:52.475Z,98171.00
2023-01-30T20:09:30.560Z,98110.31
2023-01-30T20:12:05.512Z,98163.53
2023-01-30T20:14:38.965Z,98153.84
2023-01-30T20:17:08.351Z,98157.19
2023-01-30T20:19:37.899Z,98159.47
2023-01-30T20:22:09.234Z,98144.34
2023-01-30T20:24:38.973Z,98151.03
2023-01-30T20:27:11.056Z,98149.09
2023-01-30T20:29:40.299Z,98156.47
2023-01-30T20:32:09.473Z,98123.97
2023-01-30T20:34:38.606Z,98090.44
2023-01-30T20:37:06.956Z,98136.13
2023-01-30T20:39:35.427Z,98154.09
2023-01-30T20:42:04.531Z,98115.19
2023-01-30T20:44:36.190Z,98161.59
2023-01-30T20:47:04.637Z,98157.53
2023-01-30T20:49:33.195Z,98083.66
2023-01-30T20:52:01.567Z,98124.47
2023-01-30T20:54:29.723Z,98165.53
2023-01-30T20:56:58.570Z,98124.31
2023-01-30T20:59:28.935Z,98099.59
2023-01-30T21:01:57.420Z,98162.88
2023-01-30T21:04:29.309Z,98169.31
2023-01-30T21:06:57.793Z,98162.28
2023-01-30T21:09:26.227Z,98162.41
2023-01-30T21:11:55.662Z,98119.56
2023-01-30T21:14:26.526Z,98163.72
2023-01-30T21:16:55.649Z,98164.91
2023-01-30T21:19:24.276Z,98162.16
2023-01-30T21:21:55.329Z,98117.78
2023-01-30T21:24:28.104Z,98155.28
2023-01-30T21:26:57.407Z,98167.41
2023-01-30T21:29:28.751Z,98178.59
2023-01-30T21:31:58.759Z,98167.88
2023-01-30T21:34:27.129Z,98168.00
2023-01-30T21:37:15.762Z,98182.19
2023-01-30T21:40:04.304Z,98179.78
2023-01-30T21:42:51.213Z,98166.34
2023-01-30T21:45:21.356Z,98186.00
2023-01-30T21:47:54.380Z,98128.38
2023-01-30T21:50:22.685Z,98164.56
2023-01-30T21:52:50.681Z,98184.91
2023-01-30T21:55:19.213Z,98180.63
2023-01-30T21:57:47.541Z,98188.34
2023-01-30T22:00:15.917Z,98126.22
2023-01-30T22:02:44.423Z,98165.41
2023-01-30T22:05:13.098Z,98196.47
2023-01-30T22:07:41.339Z,98131.13
2023-01-30T22:10:10.571Z,98180.41
2023-01-30T22:12:40.339Z,98176.81
2023-01-30T22:15:10.079Z,98198.13
2023-01-30T22:17:38.658Z,98173.84
2023-01-30T22:20:10.407Z,98155.75
2023-01-30T22:22:38.686Z,98146.59
2023-01-30T22:25:08.084Z,98148.63
2023-01-30T22:27:38.508Z,98193.03
2023-01-30T22:30:07.918Z,98194.59
2023-01-30T22:32:38.335Z,98193.13
2023-01-30T22:35:09.825Z,98137.56
2023-01-30T22:37:38.724Z,98025.94
2023-01-30T22:40:08.399Z,98192.41
2023-01-30T22:42:37.374Z,98193.50
2023-01-30T22:45:06.556Z,98190.75
2023-01-30T22:47:34.671Z,98155.75
2023-01-30T22:50:04.539Z,98138.25
2023-01-30T22:52:33.413Z,98201.84
2023-01-30T22:55:02.632Z,98201.59
2023-01-30T22:57:31.563Z,98172.78
2023-01-30T23:00:01.577Z,98211.84
2023-01-30T23:02:31.452Z,98197.19
2023-01-30T23:05:03.907Z,98203.88
2023-01-30T23:07:34.788Z,98194.94
2023-01-30T23:10:04.538Z,98209.94
2023-01-30T23:12:50.939Z,98219.13
2023-01-30T23:15:20.615Z,98124.34
2023-01-30T23:18:07.808Z,98218.16
2023-01-30T23:20:36.690Z,98135.53
2023-01-30T23:23:07.241Z,98211.59
2023-01-30T23:25:41.328Z,98219.22
2023-01-30T23:28:09.983Z,98221.50
2023-01-30T23:30:39.321Z,98173.28
2023-01-30T23:33:07.996Z,98185.06
2023-01-30T23:35:36.629Z,98226.03
2023-01-30T23:38:16.903Z,98222.69
2023-01-30T23:40:49.195Z,98231.03
2023-01-30T23:43:17.528Z,98206.84
2023-01-30T23:45:45.873Z,98187.44
2023-01-30T23:48:14.163Z,98236.72
2023-01-30T23:50:42.308Z,98211.72
2023-01-30T23:53:10.919Z,98244.47
2023-01-30T23:55:38.850Z,98244.34
2023-01-30T23:58:06.910Z,98239.34
